Time;durP1;ratioP1;P1;durP2;ratioP2;P2;SDS_P1;SDS_P2;PMS_P1;PMS_P2;Temp;Humidity;BMP_temperature;BMP_pressure;BME280_temperature;BME280_humidity;BME280_pressure;Samples;Min_cycle;Max_cycle;Signal;HPM_P1;HPM_P2
2021/03/03 00:01:36;;;;;;;28.17;17.30;;;4.60;70.40;;;;;;5015045;28;20328;-76
2021/03/03 00:04:03;;;;;;;25.80;17.05;;;4.60;70.80;;;;;;5015499;28;20300;-76
2021/03/03 00:06:29;;;;;;;23.60;16.23;;;4.60;71.00;;;;;;5004377;28;20209;-77
2021/03/03 00:08:58;;;;;;;27.05;16.92;;;4.60;71.10;;;;;;5018798;28;20268;-82
2021/03/03 00:11:24;;;;;;;32.45;18.85;;;4.50;71.10;;;;;;5018967;28;20197;-79
2021/03/03 00:13:50;;;;;;;28.88;17.00;;;4.50;71.90;;;;;;5015758;28;20232;-77
2021/03/03 00:16:18;;;;;;;29.55;17.75;;;4.50;71.90;;;;;;5017281;28;20213;-80
2021/03/03 00:18:45;;;;;;;26.88;15.85;;;4.40;71.40;;;;;;5019009;28;20213;-80
2021/03/03 00:21:11;;;;;;;26.13;16.52;;;4.30;72.60;;;;;;5020612;28;20239;-81
2021/03/03 00:23:38;;;;;;;26.38;16.08;;;4.30;72.40;;;;;;5021090;28;20205;-77
2021/03/03 00:26:04;;;;;;;26.33;17.65;;;4.30;72.40;;;;;;5013481;28;20261;-78
2021/03/03 00:28:30;;;;;;;29.55;17.42;;;4.20;72.30;;;;;;5014946;28;20235;-78
2021/03/03 00:30:57;;;;;;;27.52;15.80;;;4.20;73.10;;;;;;5017511;28;20311;-77
2021/03/03 00:33:24;;;;;;;29.27;17.10;;;4.10;72.50;;;;;;5011951;28;20456;-76
2021/03/03 00:35:50;;;;;;;25.63;15.52;;;4.10;73.90;;;;;;5015593;28;20216;-77
2021/03/03 00:38:17;;;;;;;21.17;16.48;;;4.10;74.30;;;;;;5013498;28;20232;-76
2021/03/03 00:40:43;;;;;;;27.70;17.40;;;4.10;74.40;;;;;;5020556;28;20192;-76
2021/03/03 00:43:10;;;;;;;29.42;16.58;;;4.10;75.20;;;;;;5008293;28;20287;-77
2021/03/03 00:45:37;;;;;;;22.50;16.27;;;4.10;75.30;;;;;;4999081;28;20323;-77
2021/03/03 00:48:04;;;;;;;26.05;16.15;;;4.10;75.60;;;;;;5004940;28;20197;-77
2021/03/03 00:50:31;;;;;;;23.95;16.98;;;4.10;75.00;;;;;;4999250;28;20299;-77
2021/03/03 00:52:57;;;;;;;29.25;16.75;;;4.10;75.30;;;;;;4997846;28;20239;-75
2021/03/03 00:55:24;;;;;;;23.83;16.08;;;4.10;75.20;;;;;;4996988;28;20677;-76
2021/03/03 00:57:50;;;;;;;25.50;16.10;;;4.10;75.00;;;;;;4999098;28;20223;-77
2021/03/03 01:00:17;;;;;;;27.42;16.75;;;4.00;75.50;;;;;;5000714;28;20228;-77
2021/03/03 01:02:44;;;;;;;24.83;17.45;;;4.10;76.40;;;;;;4996236;28;20319;-77
2021/03/03 01:05:12;;;;;;;26.55;16.70;;;4.10;76.20;;;;;;4999121;28;20687;-78
2021/03/03 01:07:39;;;;;;;24.80;16.38;;;4.10;75.70;;;;;;4997808;28;20204;-77
2021/03/03 01:10:07;;;;;;;29.52;16.88;;;4.10;75.60;;;;;;4997999;28;20204;-77
2021/03/03 01:12:34;;;;;;;31.10;16.77;;;4.10;75.40;;;;;;5000125;28;20256;-77
2021/03/03 01:15:00;;;;;;;25.38;17.13;;;4.00;75.00;;;;;;5004961;28;20203;-77
2021/03/03 01:17:26;;;;;;;26.63;17.63;;;4.00;75.10;;;;;;5000788;28;20351;-77
2021/03/03 01:19:53;;;;;;;29.63;17.10;;;3.90;75.00;;;;;;4996789;28;20247;-77
2021/03/03 01:22:19;;;;;;;28.25;17.67;;;3.90;76.00;;;;;;4996542;28;20213;-77
2021/03/03 01:24:47;;;;;;;23.52;16.85;;;3.90;75.50;;;;;;4996974;28;20208;-77
2021/03/03 01:27:13;;;;;;;28.35;17.60;;;3.90;75.60;;;;;;4996727;28;20870;-77
2021/03/03 01:29:40;;;;;;;24.50;16.02;;;3.80;75.60;;;;;;4997376;28;20623;-76
2021/03/03 01:32:06;;;;;;;27.05;15.80;;;3.80;76.00;;;;;;4996554;28;20240;-77
2021/03/03 01:34:33;;;;;;;28.63;15.55;;;3.80;75.90;;;;;;4996751;28;20270;-78
2021/03/03 01:36:59;;;;;;;26.23;17.88;;;3.80;76.00;;;;;;4996104;28;20208;-76
2021/03/03 01:39:26;;;;;;;30.13;16.73;;;3.80;76.20;;;;;;4996075;28;20259;-76
2021/03/03 01:41:55;;;;;;;28.08;16.63;;;3.80;76.60;;;;;;4995603;28;20295;-76
2021/03/03 01:44:25;;;;;;;26.95;14.93;;;3.80;76.20;;;;;;4998045;28;20228;-77
2021/03/03 01:46:51;;;;;;;28.52;16.23;;;3.70;76.10;;;;;;4996249;28;20213;-77
2021/03/03 01:49:17;;;;;;;27.60;15.00;;;3.70;76.10;;;;;;4999269;28;20210;-77
2021/03/03 01:51:44;;;;;;;24.95;14.70;;;3.80;76.90;;;;;;4999844;28;20299;-78
2021/03/03 01:54:11;;;;;;;26.85;15.90;;;3.80;76.80;;;;;;4996994;28;20319;-77
2021/03/03 01:56:37;;;;;;;27.95;14.60;;;3.80;76.60;;;;;;5003420;28;20196;-80
2021/03/03 01:59:04;;;;;;;25.13;16.23;;;3.70;76.40;;;;;;5017238;28;20314;-79
2021/03/03 02:01:31;;;;;;;24.48;15.30;;;3.80;76.50;;;;;;5018221;28;20192;-79
2021/03/03 02:03:58;;;;;;;25.73;15.32;;;3.70;76.10;;;;;;5017527;28;20262;-77
2021/03/03 02:06:29;;;;;;;21.58;14.25;;;3.70;77.00;;;;;;5013667;28;20235;-77
2021/03/03 02:09:03;;;;;;;26.52;15.25;;;3.80;76.30;;;;;;4997024;28;20188;-78
2021/03/03 02:11:40;;;;;;;24.23;15.60;;;3.70;76.80;;;;;;4997273;28;20239;-78
2021/03/03 02:14:11;;;;;;;25.60;15.95;;;3.70;75.80;;;;;;4996419;28;20307;-77
2021/03/03 02:16:38;;;;;;;25.55;16.42;;;3.70;76.10;;;;;;4999783;28;20217;-77
2021/03/03 02:19:06;;;;;;;25.75;15.60;;;3.70;76.10;;;;;;4994907;28;20256;-77
2021/03/03 02:21:35;;;;;;;22.17;14.27;;;3.70;76.00;;;;;;4994848;28;20208;-76
2021/03/03 02:24:07;;;;;;;22.48;14.52;;;3.70;76.10;;;;;;4995620;28;20251;-76
2021/03/03 02:26:36;;;;;;;18.35;13.65;;;3.70;76.10;;;;;;4995735;28;20185;-77
2021/03/03 02:29:03;;;;;;;24.00;15.18;;;3.70;75.70;;;;;;4997971;28;20232;-77
2021/03/03 02:31:30;;;;;;;21.05;13.68;;;3.70;75.60;;;;;;4999157;28;20208;-77
2021/03/03 02:33:58;;;;;;;23.08;13.98;;;3.70;75.90;;;;;;5005508;28;20248;-78
2021/03/03 02:36:26;;;;;;;22.73;14.60;;;3.80;75.80;;;;;;5006485;28;20204;-77
2021/03/03 02:38:52;;;;;;;21.45;13.73;;;3.80;75.30;;;;;;4998461;28;20283;-77
2021/03/03 02:41:19;;;;;;;22.75;15.02;;;3.80;74.90;;;;;;5001729;28;20244;-78
2021/03/03 02:43:47;;;;;;;19.45;13.93;;;3.70;74.50;;;;;;5014507;28;20240;-78
2021/03/03 02:46:15;;;;;;;20.58;13.73;;;3.70;74.60;;;;;;5012777;28;20219;-77
2021/03/03 02:48:41;;;;;;;23.77;14.85;;;3.70;75.10;;;;;;4997220;28;20200;-77
2021/03/03 02:51:08;;;;;;;26.58;13.75;;;3.70;75.00;;;;;;4997398;28;20217;-78
2021/03/03 02:53:35;;;;;;;36.85;16.83;;;3.70;74.90;;;;;;4997371;28;20255;-77
2021/03/03 02:56:01;;;;;;;27.75;13.48;;;3.70;74.80;;;;;;5013872;28;20300;-78
2021/03/03 02:58:27;;;;;;;20.55;13.70;;;3.70;74.60;;;;;;5009123;28;20692;-78
2021/03/03 03:00:57;;;;;;;23.95;14.07;;;3.70;74.30;;;;;;5017923;28;20220;-80
2021/03/03 03:03:28;;;;;;;23.27;15.00;;;3.70;73.90;;;;;;5041535;22;20234;-82
2021/03/03 03:06:00;;;;;;;19.92;13.32;;;3.70;74.10;;;;;;5044172;28;20211;-80
2021/03/03 03:08:28;;;;;;;19.67;13.60;;;3.70;74.10;;;;;;5046171;28;20217;-80
2021/03/03 03:10:59;;;;;;;20.88;13.85;;;3.70;74.30;;;;;;5049571;28;20737;-81
2021/03/03 03:13:29;;;;;;;20.60;12.50;;;3.70;74.60;;;;;;5051078;28;20218;-79
2021/03/03 03:15:58;;;;;;;23.15;14.73;;;3.70;74.30;;;;;;5050222;28;20203;-81
2021/03/03 03:18:29;;;;;;;19.45;13.98;;;3.60;74.50;;;;;;5050199;28;20218;-81
2021/03/03 03:20:57;;;;;;;26.67;14.90;;;3.60;74.90;;;;;;5050191;28;20278;-79
2021/03/03 03:23:24;;;;;;;20.73;13.73;;;3.60;74.70;;;;;;5049021;28;20227;-78
2021/03/03 03:25:53;;;;;;;18.23;13.60;;;3.70;74.70;;;;;;5049729;28;20207;-78
2021/03/03 03:28:20;;;;;;;17.45;11.85;;;3.60;75.20;;;;;;5049775;28;20566;-79
2021/03/03 03:30:47;;;;;;;23.70;12.73;;;3.70;75.70;;;;;;5050357;28;20215;-80
2021/03/03 03:33:16;;;;;;;20.85;12.25;;;3.70;75.80;;;;;;5051985;28;20242;-79
2021/03/03 03:35:43;;;;;;;19.52;12.93;;;3.80;75.40;;;;;;5051978;28;20207;-79
2021/03/03 03:38:10;;;;;;;18.85;12.65;;;3.80;75.10;;;;;;5055279;28;20211;-78
2021/03/03 03:40:37;;;;;;;18.25;12.45;;;3.80;74.80;;;;;;5060333;28;20215;-76
2021/03/03 03:43:05;;;;;;;17.10;11.80;;;3.80;74.50;;;;;;5057295;28;20306;-79
2021/03/03 03:45:34;;;;;;;17.95;11.55;;;3.80;74.20;;;;;;5051356;28;20387;-80
2021/03/03 03:48:02;;;;;;;17.92;11.80;;;3.80;73.70;;;;;;5048983;28;20242;-80
2021/03/03 03:50:30;;;;;;;18.10;13.43;;;3.70;73.80;;;;;;5041591;28;20200;-80
2021/03/03 03:52:58;;;;;;;22.83;13.10;;;3.70;74.00;;;;;;5045878;28;20227;-80
2021/03/03 03:55:30;;;;;;;17.85;12.60;;;3.60;74.40;;;;;;5045365;28;20300;-80
2021/03/03 03:57:57;;;;;;;17.08;12.35;;;3.60;74.60;;;;;;5051641;28;20226;-80
2021/03/03 04:00:24;;;;;;;19.23;13.45;;;3.70;75.50;;;;;;5051721;28;20229;-77
2021/03/03 04:02:51;;;;;;;18.08;12.75;;;3.70;74.50;;;;;;5050711;28;20231;-78
2021/03/03 04:05:18;;;;;;;20.30;14.27;;;3.70;74.10;;;;;;5052045;28;20203;-80
2021/03/03 04:07:46;;;;;;;22.20;13.73;;;3.70;73.90;;;;;;5050672;28;20215;-80
2021/03/03 04:10:15;;;;;;;20.40;13.82;;;3.70;73.80;;;;;;5049279;28;20211;-79
2021/03/03 04:12:42;;;;;;;20.85;12.45;;;3.80;73.90;;;;;;5051795;28;20231;-81
2021/03/03 04:15:10;;;;;;;21.02;12.90;;;3.80;73.50;;;;;;5056841;28;20195;-78
2021/03/03 04:17:37;;;;;;;21.40;14.15;;;3.70;73.20;;;;;;5059827;28;20238;-78
2021/03/03 04:20:07;;;;;;;18.80;13.30;;;3.70;72.60;;;;;;5045261;28;20231;-78
2021/03/03 04:22:35;;;;;;;22.73;13.57;;;3.60;73.20;;;;;;5039014;28;20230;-78
2021/03/03 04:25:03;;;;;;;20.55;13.00;;;3.60;74.20;;;;;;5039295;28;20239;-80
2021/03/03 04:27:30;;;;;;;19.25;12.55;;;3.60;74.40;;;;;;5038666;28;20218;-78
2021/03/03 04:29:56;;;;;;;21.20;13.90;;;3.60;74.30;;;;;;5040353;28;20566;-81
2021/03/03 04:32:23;;;;;;;22.67;13.32;;;3.60;74.30;;;;;;5039504;28;20246;-79
2021/03/03 04:34:49;;;;;;;19.58;12.57;;;3.60;74.50;;;;;;5041719;28;20201;-80
2021/03/03 04:37:16;;;;;;;20.17;13.23;;;3.60;74.80;;;;;;5042841;28;20222;-80
2021/03/03 04:39:43;;;;;;;22.02;13.77;;;3.60;74.90;;;;;;5060057;28;20219;-80
2021/03/03 04:42:10;;;;;;;18.10;12.80;;;3.60;74.60;;;;;;5057518;28;20239;-77
2021/03/03 04:44:37;;;;;;;21.17;12.30;;;3.60;74.80;;;;;;5059471;28;20241;-78
2021/03/03 04:47:03;;;;;;;21.88;12.70;;;3.60;74.60;;;;;;5058182;28;20233;-78
2021/03/03 04:49:30;;;;;;;19.65;12.25;;;3.50;74.50;;;;;;5057317;28;20230;-79
2021/03/03 04:51:56;;;;;;;23.95;12.90;;;3.50;74.60;;;;;;5048867;28;20218;-80
2021/03/03 04:54:23;;;;;;;17.63;11.93;;;3.50;74.90;;;;;;5047453;28;20257;-77
2021/03/03 04:56:49;;;;;;;19.77;12.57;;;3.60;74.50;;;;;;5039807;28;20206;-81
2021/03/03 04:59:16;;;;;;;18.30;12.30;;;3.60;74.20;;;;;;5039903;28;20250;-79
2021/03/03 05:01:43;;;;;;;16.15;11.82;;;3.60;74.10;;;;;;5042345;28;20206;-78
2021/03/03 05:04:09;;;;;;;17.17;12.15;;;3.60;74.20;;;;;;5040108;28;20326;-78
2021/03/03 05:06:36;;;;;;;20.38;12.82;;;3.60;74.30;;;;;;5040580;28;20203;-81
2021/03/03 05:09:03;;;;;;;23.27;12.07;;;3.60;74.40;;;;;;5041391;28;20203;-80
2021/03/03 05:11:29;;;;;;;22.38;12.73;;;3.50;74.30;;;;;;5048287;28;20294;-79
2021/03/03 05:13:56;;;;;;;21.20;11.00;;;3.50;74.30;;;;;;5042467;28;20706;-80
2021/03/03 05:16:23;;;;;;;15.40;12.10;;;3.50;74.00;;;;;;5043966;28;20203;-80
2021/03/03 05:18:49;;;;;;;20.90;12.27;;;3.50;74.20;;;;;;5047691;28;20207;-80
2021/03/03 05:21:16;;;;;;;18.27;11.88;;;3.40;74.30;;;;;;5042771;28;20271;-80
2021/03/03 05:23:42;;;;;;;19.73;12.43;;;3.40;74.40;;;;;;5041755;28;20295;-79
2021/03/03 05:26:09;;;;;;;18.17;12.32;;;3.40;75.00;;;;;;5043315;28;20210;-82
2021/03/03 05:28:35;;;;;;;19.92;13.32;;;3.40;75.40;;;;;;5046417;28;20246;-80
2021/03/03 05:31:02;;;;;;;19.55;10.98;;;3.40;75.90;;;;;;5047812;28;20204;-79
2021/03/03 05:33:31;;;;;;;16.67;12.40;;;3.40;75.90;;;;;;5051189;28;20231;-78
2021/03/03 05:35:59;;;;;;;24.27;13.10;;;3.40;75.90;;;;;;5054986;28;20410;-78
2021/03/03 05:38:26;;;;;;;21.38;12.93;;;3.50;76.20;;;;;;5058434;28;20195;-78
2021/03/03 05:40:54;;;;;;;23.73;12.95;;;3.50;76.00;;;;;;5058510;28;20222;-78
2021/03/03 05:43:21;;;;;;;19.27;12.23;;;3.50;76.00;;;;;;5057737;28;20211;-75
2021/03/03 05:45:49;;;;;;;16.60;12.38;;;3.60;76.00;;;;;;5057239;28;20191;-79
2021/03/03 05:59:27;;;;;;;19.00;12.77;;;3.60;78.60;;;;;;4988883;28;20205;-77
2021/03/03 06:05:23;;;;;;;20.40;14.05;;;3.80;78.30;;;;;;4992144;28;20249;-78
2021/03/03 06:10:41;;;;;;;23.33;14.40;;;3.90;79.20;;;;;;4993306;28;20221;-77
2021/03/03 06:20:19;;;;;;;25.20;14.13;;;3.90;79.00;;;;;;4862045;29;20749;-77
2021/03/03 06:23:17;;;;;;;25.63;14.02;;;3.80;78.50;;;;;;4862376;29;20271;-77
2021/03/03 06:43:32;;;;;;;26.85;14.77;;;4.00;79.20;;;;;;5622210;22;20669;-80
2021/03/03 06:46:17;;;;;;;20.67;13.40;;;4.10;79.10;;;;;;5017143;28;20220;-79
2021/03/03 06:48:45;;;;;;;19.27;12.10;;;4.20;78.40;;;;;;5017664;28;20191;-79
2021/03/03 06:51:26;;;;;;;21.73;13.35;;;4.20;77.90;;;;;;5019812;28;20208;-79
2021/03/03 07:00:45;;;;;;;20.17;11.88;;;4.50;75.40;;;;;;5037068;28;20231;-79
2021/03/03 07:03:27;;;;;;;18.20;12.85;;;4.60;73.70;;;;;;5037257;28;20242;-79
2021/03/03 07:05:54;;;;;;;20.45;11.40;;;4.70;72.80;;;;;;5034769;28;20215;-78
2021/03/03 07:08:21;;;;;;;18.13;12.30;;;4.70;72.80;;;;;;5030684;28;20196;-80
2021/03/03 07:10:48;;;;;;;17.42;11.55;;;4.80;71.70;;;;;;5037157;28;20200;-80
2021/03/03 07:13:15;;;;;;;19.67;11.95;;;4.90;71.50;;;;;;5037206;28;20250;-81
2021/03/03 07:15:42;;;;;;;17.33;11.50;;;5.00;70.70;;;;;;5036999;28;20192;-78
2021/03/03 07:18:38;;;;;;;20.48;11.88;;;5.10;70.10;;;;;;5036979;28;20220;-78
2021/03/03 07:21:06;;;;;;;21.63;12.00;;;5.20;68.90;;;;;;5032609;28;20282;-79
2021/03/03 07:23:47;;;;;;;18.55;12.20;;;5.30;68.30;;;;;;5033535;28;20223;-77
2021/03/03 07:26:15;;;;;;;18.45;11.25;;;5.40;67.40;;;;;;5032467;28;20219;-80
2021/03/03 07:28:42;;;;;;;23.42;12.80;;;5.50;66.60;;;;;;5026291;28;20208;-81
2021/03/03 07:31:11;;;;;;;23.20;12.32;;;5.60;64.90;;;;;;5027157;28;20207;-79
2021/03/03 07:33:38;;;;;;;16.20;11.50;;;5.70;64.90;;;;;;4988290;28;20241;-80
2021/03/03 07:36:07;;;;;;;14.70;11.73;;;5.80;64.20;;;;;;4992640;28;20216;-79
2021/03/03 07:38:36;;;;;;;17.63;10.98;;;5.90;63.40;;;;;;4984683;28;20237;-81
2021/03/03 07:41:04;;;;;;;18.52;10.98;;;6.00;62.30;;;;;;4985576;28;20233;-79
2021/03/03 07:43:33;;;;;;;18.33;11.93;;;6.10;61.40;;;;;;4985578;28;20311;-80
2021/03/03 07:46:07;;;;;;;16.73;10.40;;;6.20;60.90;;;;;;4989263;28;20446;-79
2021/03/03 07:48:34;;;;;;;19.67;11.90;;;6.20;60.30;;;;;;4988078;28;20286;-79
2021/03/03 07:51:05;;;;;;;20.80;12.27;;;6.30;59.50;;;;;;4985699;28;20241;-81
2021/03/03 07:53:36;;;;;;;26.25;12.65;;;6.40;59.60;;;;;;4988661;28;20693;-80
2021/03/03 07:56:06;;;;;;;26.27;11.73;;;6.50;58.90;;;;;;4989913;28;20213;-79
2021/03/03 07:58:34;;;;;;;25.77;11.43;;;6.50;57.70;;;;;;4988678;28;20272;-80
2021/03/03 08:01:01;;;;;;;18.98;11.63;;;6.60;58.00;;;;;;4988419;28;20279;-80
2021/03/03 08:03:42;;;;;;;20.88;11.43;;;6.80;57.00;;;;;;4999620;28;20213;-77
2021/03/03 08:16:03;;;;;;;20.75;11.57;;;7.40;54.10;;;;;;5114774;23;20230;-80
2021/03/03 08:18:31;;;;;;;20.25;12.20;;;7.40;53.90;;;;;;5056374;28;20214;-80
2021/03/03 08:20:58;;;;;;;25.98;12.80;;;7.50;53.70;;;;;;5058465;28;20219;-80
2021/03/03 08:23:49;;;;;;;19.30;13.05;;;7.50;53.70;;;;;;5044664;28;20254;-79
2021/03/03 08:26:54;;;;;;;19.40;12.68;;;7.60;53.90;;;;;;5041538;28;20226;-79
2021/03/03 08:33:35;;;;;;;24.00;15.57;;;7.70;53.30;;;;;;4889627;29;20227;-78
2021/03/03 08:36:02;;;;;;;27.80;14.82;;;7.80;53.10;;;;;;4886485;29;20212;-81
2021/03/03 08:38:29;;;;;;;25.20;17.38;;;7.90;53.20;;;;;;4891793;29;20239;-81
2021/03/03 08:41:30;;;;;;;26.10;17.30;;;8.00;53.20;;;;;;4892062;29;20250;-80
2021/03/03 08:44:01;;;;;;;28.25;18.38;;;8.10;52.60;;;;;;4891618;29;20232;-81
2021/03/03 08:46:46;;;;;;;24.70;17.98;;;8.30;52.30;;;;;;4895162;29;20201;-79
2021/03/03 08:49:30;;;;;;;26.90;18.15;;;8.40;51.60;;;;;;4898922;29;20249;-79
2021/03/03 08:52:13;;;;;;;32.13;18.38;;;8.50;50.70;;;;;;4891510;29;20227;-80
2021/03/03 08:54:46;;;;;;;30.50;19.05;;;8.60;51.10;;;;;;4901066;29;20232;-80
2021/03/03 08:57:31;;;;;;;28.15;18.20;;;8.70;50.30;;;;;;4899522;29;20239;-80
2021/03/03 08:59:58;;;;;;;26.50;18.10;;;8.50;50.30;;;;;;4923915;28;20263;-81
2021/03/03 09:02:36;;;;;;;25.35;18.17;;;8.50;50.50;;;;;;4984111;28;20220;-80
2021/03/03 09:05:08;;;;;;;29.02;17.77;;;8.70;50.10;;;;;;4984811;28;20209;-81
2021/03/03 09:07:35;;;;;;;24.80;16.85;;;8.80;49.20;;;;;;4985286;28;20208;-80
2021/03/03 09:10:04;;;;;;;25.70;17.27;;;8.90;49.30;;;;;;5030005;28;20203;-81
2021/03/03 09:12:42;;;;;;;26.88;17.50;;;9.00;49.40;;;;;;5044243;28;20207;-79
2021/03/03 09:15:14;;;;;;;23.05;16.90;;;8.90;49.30;;;;;;5021598;28;20714;-78
2021/03/03 09:17:57;;;;;;;21.20;16.85;;;8.90;49.30;;;;;;5040693;28;20211;-79
2021/03/03 09:20:32;;;;;;;24.35;18.45;;;9.00;49.40;;;;;;5041948;28;20235;-79
2021/03/03 09:23:06;;;;;;;29.45;19.27;;;9.10;49.50;;;;;;5046160;28;20301;-78
2021/03/03 09:25:58;;;;;;;27.55;17.92;;;9.20;49.60;;;;;;5054962;28;20197;-80
2021/03/03 09:28:47;;;;;;;27.98;17.52;;;9.40;48.40;;;;;;5057677;28;20202;-79
2021/03/03 09:31:31;;;;;;;27.25;19.02;;;9.50;48.70;;;;;;5037643;28;20207;-79
2021/03/03 09:45:10;;;;;;;25.77;18.60;;;9.80;45.80;;;;;;5072770;28;20233;-77
2021/03/03 09:47:39;;;;;;;32.33;19.55;;;9.70;45.90;;;;;;5069928;28;20195;-79
2021/03/03 09:50:09;;;;;;;27.27;18.30;;;9.80;46.00;;;;;;5068619;28;20209;-79
2021/03/03 09:52:38;;;;;;;24.50;18.20;;;10.00;45.00;;;;;;5066311;28;20713;-80
2021/03/03 09:55:08;;;;;;;33.38;18.70;;;10.10;44.30;;;;;;5070625;28;20213;-80
2021/03/03 09:57:34;;;;;;;30.48;17.58;;;10.00;44.10;;;;;;5072833;28;20209;-80
2021/03/03 10:00:01;;;;;;;26.05;16.95;;;10.10;44.50;;;;;;5068122;28;20230;-81
2021/03/03 10:02:29;;;;;;;28.48;17.50;;;10.10;44.00;;;;;;5064130;28;20207;-81
2021/03/03 10:04:59;;;;;;;24.25;16.42;;;10.20;43.80;;;;;;5063918;28;20582;-81
2021/03/03 10:07:26;;;;;;;24.08;17.00;;;10.30;43.80;;;;;;5062616;28;20210;-82
2021/03/03 10:09:55;;;;;;;21.42;15.15;;;10.40;44.00;;;;;;5287672;23;20274;-80
2021/03/03 10:12:23;;;;;;;22.13;15.80;;;10.70;43.30;;;;;;5054049;28;20191;-80
2021/03/03 10:14:58;;;;;;;21.02;15.23;;;10.70;42.60;;;;;;5051849;28;20191;-85
2021/03/03 10:17:29;;;;;;;24.60;15.55;;;10.80;42.10;;;;;;5046249;28;20207;-81
2021/03/03 10:19:56;;;;;;;22.98;15.02;;;10.90;41.40;;;;;;5044628;28;20227;-81
2021/03/03 10:22:23;;;;;;;19.63;14.00;;;10.80;41.40;;;;;;5051497;28;20207;-83
2021/03/03 10:27:25;;;;;;;20.35;14.38;;;10.90;41.10;;;;;;5309263;23;20486;-82
2021/03/03 10:29:52;;;;;;;19.48;14.10;;;10.90;40.70;;;;;;5052653;28;20263;-80
2021/03/03 10:32:19;;;;;;;20.88;14.65;;;11.00;40.40;;;;;;5053418;28;20241;-79
2021/03/03 10:34:45;;;;;;;22.27;14.07;;;10.90;41.00;;;;;;5023785;28;20711;-80
2021/03/03 10:40:38;;;;;;;22.65;14.45;;;11.10;40.50;;;;;;4965966;28;20286;-80
2021/03/03 10:43:09;;;;;;;21.90;14.30;;;11.20;40.60;;;;;;4990162;28;20233;-78
2021/03/03 10:45:35;;;;;;;21.80;14.65;;;11.30;40.70;;;;;;4982190;28;20289;-80
2021/03/03 10:48:01;;;;;;;22.33;15.95;;;11.40;40.80;;;;;;4977546;28;20209;-79
2021/03/03 10:50:30;;;;;;;24.33;15.13;;;11.50;40.30;;;;;;4989291;28;20212;-78
2021/03/03 10:52:59;;;;;;;19.58;15.43;;;11.70;39.40;;;;;;5015286;28;20263;-78
2021/03/03 10:55:32;;;;;;;22.77;15.90;;;11.70;39.50;;;;;;5014984;28;20200;-78
2021/03/03 10:58:11;;;;;;;20.30;14.80;;;11.70;39.20;;;;;;5009638;28;20216;-81
2021/03/03 11:00:58;;;;;;;23.75;16.45;;;11.80;39.30;;;;;;4998627;28;20338;-79
2021/03/03 11:03:28;;;;;;;22.05;15.38;;;11.90;38.70;;;;;;5001170;28;20347;-78
2021/03/03 11:05:56;;;;;;;24.35;15.82;;;12.20;38.50;;;;;;5012700;28;20216;-79
2021/03/03 11:08:24;;;;;;;22.13;16.00;;;12.20;38.40;;;;;;5009652;28;20208;-81
2021/03/03 11:14:08;;;;;;;23.42;16.73;;;12.20;38.20;;;;;;5023401;28;20250;-80
2021/03/03 11:16:35;;;;;;;23.75;16.00;;;12.40;37.10;;;;;;5024206;28;20215;-79
2021/03/03 11:19:02;;;;;;;22.73;16.95;;;12.40;37.20;;;;;;5022511;28;20196;-80
2021/03/03 11:21:28;;;;;;;22.77;17.80;;;12.50;36.70;;;;;;5019155;28;20283;-80
2021/03/03 11:23:54;;;;;;;26.48;17.95;;;12.40;36.70;;;;;;5023602;28;20239;-79
2021/03/03 11:26:21;;;;;;;23.85;18.73;;;12.60;36.10;;;;;;5022414;28;20239;-80
2021/03/03 11:28:47;;;;;;;24.17;17.17;;;12.60;36.10;;;;;;5037110;28;20243;-78
2021/03/03 11:31:15;;;;;;;31.95;18.38;;;12.60;36.60;;;;;;5049176;28;20290;-80
2021/03/03 11:33:45;;;;;;;24.40;18.20;;;12.60;35.60;;;;;;5044484;28;20663;-79
2021/03/03 11:36:14;;;;;;;25.90;18.27;;;12.50;35.50;;;;;;5045781;28;20241;-81
2021/03/03 11:38:48;;;;;;;31.80;19.00;;;12.50;35.30;;;;;;5047141;28;20374;-80
2021/03/03 11:41:15;;;;;;;31.15;19.45;;;12.50;36.00;;;;;;5054030;28;20568;-79
2021/03/03 11:43:42;;;;;;;30.52;20.48;;;12.40;36.00;;;;;;5055506;28;20227;-81
2021/03/03 11:46:08;;;;;;;27.52;17.75;;;12.50;36.10;;;;;;5053718;28;20211;-84
2021/03/03 11:48:36;;;;;;;27.83;19.35;;;12.70;35.70;;;;;;5050785;28;20211;-80
2021/03/03 11:51:03;;;;;;;26.73;18.40;;;12.70;35.40;;;;;;5054990;28;20215;-78
2021/03/03 11:53:30;;;;;;;23.73;19.10;;;12.70;35.50;;;;;;5058029;28;20235;-80
2021/03/03 11:55:56;;;;;;;29.83;19.60;;;12.70;35.60;;;;;;5056347;28;20218;-82
2021/03/03 11:58:23;;;;;;;29.02;19.08;;;12.70;35.60;;;;;;5056062;28;20203;-82
2021/03/03 12:00:49;;;;;;;28.40;19.20;;;12.80;35.40;;;;;;5059190;28;20227;-81
2021/03/03 12:03:16;;;;;;;28.45;20.33;;;12.90;36.40;;;;;;5057602;28;20231;-80
2021/03/03 12:05:43;;;;;;;27.05;19.85;;;12.90;35.50;;;;;;5054896;28;20238;-83
2021/03/03 12:08:10;;;;;;;31.98;20.65;;;12.80;36.00;;;;;;5057538;28;20214;-81
2021/03/03 12:10:38;;;;;;;26.83;18.30;;;13.00;35.90;;;;;;5058163;28;20243;-82
2021/03/03 12:13:04;;;;;;;29.38;18.85;;;13.20;35.30;;;;;;5054288;28;20246;-80
2021/03/03 12:15:31;;;;;;;27.33;18.98;;;13.40;35.10;;;;;;5040529;28;20203;-83
2021/03/03 12:17:57;;;;;;;30.55;20.38;;;13.60;34.80;;;;;;5041087;28;20204;-80
2021/03/03 12:20:27;;;;;;;28.42;20.52;;;13.70;34.30;;;;;;5040001;28;20227;-81
2021/03/03 12:22:55;;;;;;;24.70;19.63;;;13.60;35.00;;;;;;5041810;28;20716;-81
2021/03/03 12:25:21;;;;;;;29.25;20.67;;;13.70;34.90;;;;;;5046380;28;20290;-83
2021/03/03 12:27:48;;;;;;;33.63;20.52;;;13.80;34.10;;;;;;5038041;28;20248;-81
2021/03/03 12:30:15;;;;;;;31.80;19.58;;;14.00;33.60;;;;;;5022899;28;20303;-82
2021/03/03 12:32:42;;;;;;;24.90;19.38;;;13.90;34.40;;;;;;5022387;28;20309;-81
2021/03/03 12:35:10;;;;;;;28.20;20.77;;;14.10;33.30;;;;;;5022131;28;20239;-80
2021/03/03 12:37:37;;;;;;;32.73;20.50;;;14.30;34.20;;;;;;5018299;28;20250;-82
2021/03/03 12:40:05;;;;;;;27.80;19.00;;;14.00;33.20;;;;;;5019327;28;20461;-83
2021/03/03 12:42:32;;;;;;;28.40;19.50;;;14.10;33.30;;;;;;5020013;28;20627;-82
2021/03/03 12:44:58;;;;;;;24.50;19.70;;;14.30;33.50;;;;;;5020021;28;20458;-81
2021/03/03 12:47:25;;;;;;;29.33;20.03;;;14.30;33.50;;;;;;5020557;28;20216;-80
2021/03/03 12:49:51;;;;;;;23.85;17.83;;;14.40;33.50;;;;;;5027220;28;20578;-80
2021/03/03 12:52:18;;;;;;;28.50;18.25;;;14.70;33.80;;;;;;5033912;28;20212;-83
2021/03/03 12:54:44;;;;;;;24.42;19.30;;;14.70;32.10;;;;;;5033799;28;20228;-83
2021/03/03 12:57:12;;;;;;;26.90;19.00;;;14.80;31.70;;;;;;5034823;28;20212;-81
2021/03/03 12:59:38;;;;;;;28.80;21.13;;;14.90;31.70;;;;;;5035677;28;20232;-80
2021/03/03 13:02:05;;;;;;;31.27;25.27;;;15.10;31.50;;;;;;5035726;28;20208;-82
2021/03/03 13:04:31;;;;;;;27.63;19.07;;;15.40;30.80;;;;;;5038076;28;20533;-81
2021/03/03 13:06:58;;;;;;;26.87;20.00;;;15.50;30.00;;;;;;5034182;28;20446;-81
2021/03/03 13:09:24;;;;;;;23.23;17.17;;;15.30;30.20;;;;;;5332881;23;20493;-83
2021/03/03 13:11:51;;;;;;;25.40;19.50;;;15.40;30.70;;;;;;5109675;22;20519;-83
2021/03/03 13:14:19;;;;;;;25.40;18.57;;;15.50;30.00;;;;;;5075282;28;20468;-82
2021/03/03 13:16:46;;;;;;;29.93;19.40;;;15.60;29.70;;;;;;5072508;28;20449;-81
2021/03/03 13:19:18;;;;;;;29.70;18.10;;;15.60;30.20;;;;;;5068058;28;20422;-82
2021/03/03 13:29:34;;;;;;;27.30;18.47;;;15.60;30.10;;;;;;5179879;22;20504;-81
2021/03/03 13:32:09;;;;;;;30.47;18.50;;;15.60;30.00;;;;;;5066479;28;20448;-81
2021/03/03 13:34:35;;;;;;;25.13;17.33;;;15.50;29.90;;;;;;5070938;28;20497;-82
2021/03/03 13:37:01;;;;;;;24.20;17.70;;;15.60;29.60;;;;;;5071938;28;20561;-80
2021/03/03 13:39:31;;;;;;;29.33;19.00;;;15.40;29.80;;;;;;5072731;28;20423;-81
2021/03/03 13:41:58;;;;;;;24.92;18.42;;;15.40;29.90;;;;;;5095593;22;20503;-84
2021/03/03 13:44:25;;;;;;;25.77;17.20;;;15.50;29.70;;;;;;5067534;28;20224;-82
2021/03/03 13:46:53;;;;;;;33.15;19.08;;;15.40;29.50;;;;;;5076927;28;20429;-87
2021/03/03 13:49:20;;;;;;;34.33;20.08;;;15.30;28.20;;;;;;5077344;28;20191;-88
2021/03/03 13:51:47;;;;;;;28.77;18.05;;;15.10;28.40;;;;;;5076707;28;20306;-87
2021/03/03 13:54:14;;;;;;;28.67;18.08;;;15.00;28.50;;;;;;5077328;28;20202;-87
2021/03/03 13:56:42;;;;;;;28.52;18.50;;;15.00;28.90;;;;;;5077213;28;20190;-87
2021/03/03 13:59:09;;;;;;;26.65;16.88;;;15.00;28.90;;;;;;5077540;28;20186;-89
2021/03/03 14:01:37;;;;;;;25.38;16.98;;;14.90;29.40;;;;;;5076788;28;20242;-87
2021/03/03 14:04:05;;;;;;;28.80;17.80;;;14.80;29.50;;;;;;5075200;28;20214;-83
2021/03/03 14:06:31;;;;;;;28.20;18.85;;;14.70;29.90;;;;;;5076530;28;20186;-84
2021/03/03 14:08:58;;;;;;;26.17;19.15;;;14.60;30.00;;;;;;5076471;28;20224;-85
2021/03/03 14:11:25;;;;;;;35.28;20.05;;;14.60;30.20;;;;;;5075951;28;20244;-84
2021/03/03 14:13:52;;;;;;;29.45;19.15;;;14.40;30.10;;;;;;5075335;28;20203;-86